sensor_id;sensor_type;location;lat;lon;timestamp;temperature;humidity
40630;DHT22;26329;40.388;-3.710;2023-06-26T00:00:00;28.80;34.90
40630;DHT22;26329;40.388;-3.710;2023-06-26T00:10:05;28.70;35.20
40630;DHT22;26329;40.388;-3.710;2023-06-26T00:20:06;28.60;35.50
40630;DHT22;26329;40.388;-3.710;2023-06-26T00:30:08;28.40;36.20
40630;DHT22;26329;40.388;-3.710;2023-06-26T00:40:09;28.20;36.60
40630;DHT22;26329;40.388;-3.710;2023-06-26T00:50:10;28.10;37.20
40630;DHT22;26329;40.388;-3.710;2023-06-26T01:00:11;27.90;37.50
40630;DHT22;26329;40.388;-3.710;2023-06-26T01:10:13;27.70;38.10
40630;DHT22;26329;40.388;-3.710;2023-06-26T01:20:14;27.70;38.30
40630;DHT22;26329;40.388;-3.710;2023-06-26T01:30:16;27.60;38.70
40630;DHT22;26329;40.388;-3.710;2023-06-26T01:40:18;27.50;39.10
40630;DHT22;26329;40.388;-3.710;2023-06-26T01:50:22;27.30;39.40
40630;DHT22;26329;40.388;-3.710;2023-06-26T02:00:25;27.20;39.70
40630;DHT22;26329;40.388;-3.710;2023-06-26T02:10:27;26.80;40.90
40630;DHT22;26329;40.388;-3.710;2023-06-26T02:20:27;26.50;41.60
40630;DHT22;26329;40.388;-3.710;2023-06-26T02:30:28;26.40;42.20
40630;DHT22;26329;40.388;-3.710;2023-06-26T02:40:29;26.20;42.40
40630;DHT22;26329;40.388;-3.710;2023-06-26T02:50:30;26.20;42.30
40630;DHT22;26329;40.388;-3.710;2023-06-26T03:00:31;26.00;42.60
40630;DHT22;26329;40.388;-3.710;2023-06-26T03:10:31;26.20;42.30
40630;DHT22;26329;40.388;-3.710;2023-06-26T03:20:32;26.40;41.90
40630;DHT22;26329;40.388;-3.710;2023-06-26T03:30:33;26.40;42.20
40630;DHT22;26329;40.388;-3.710;2023-06-26T03:40:33;26.20;43.10
40630;DHT22;26329;40.388;-3.710;2023-06-26T03:50:34;25.80;43.20
40630;DHT22;26329;40.388;-3.710;2023-06-26T04:00:35;25.80;43.00
40630;DHT22;26329;40.388;-3.710;2023-06-26T04:10:35;25.70;43.50
40630;DHT22;26329;40.388;-3.710;2023-06-26T04:21:03;25.70;43.80
40630;DHT22;26329;40.388;-3.710;2023-06-26T04:31:01;25.50;44.30
40630;DHT22;26329;40.388;-3.710;2023-06-26T04:41:02;25.30;45.20
40630;DHT22;26329;40.388;-3.710;2023-06-26T04:51:03;25.20;46.10
40630;DHT22;26329;40.388;-3.710;2023-06-26T05:01:04;24.80;47.40
40630;DHT22;26329;40.388;-3.710;2023-06-26T05:11:07;24.40;48.50
40630;DHT22;26329;40.388;-3.710;2023-06-26T05:21:08;24.30;49.00
40630;DHT22;26329;40.388;-3.710;2023-06-26T05:31:09;24.20;48.90
40630;DHT22;26329;40.388;-3.710;2023-06-26T05:41:10;24.40;48.70
40630;DHT22;26329;40.388;-3.710;2023-06-26T05:51:11;24.50;48.90
40630;DHT22;26329;40.388;-3.710;2023-06-26T06:01:11;24.60;48.80
40630;DHT22;26329;40.388;-3.710;2023-06-26T06:11:12;24.90;48.60
40630;DHT22;26329;40.388;-3.710;2023-06-26T06:21:13;25.00;48.20
40630;DHT22;26329;40.388;-3.710;2023-06-26T06:31:13;25.20;47.80
40630;DHT22;26329;40.388;-3.710;2023-06-26T06:41:14;25.40;47.30
40630;DHT22;26329;40.388;-3.710;2023-06-26T06:51:16;25.60;46.70
40630;DHT22;26329;40.388;-3.710;2023-06-26T07:01:16;26.10;45.80
40630;DHT22;26329;40.388;-3.710;2023-06-26T07:11:17;26.90;43.90
40630;DHT22;26329;40.388;-3.710;2023-06-26T07:21:18;27.90;42.10
40630;DHT22;26329;40.388;-3.710;2023-06-26T07:31:18;28.70;39.90
40630;DHT22;26329;40.388;-3.710;2023-06-26T07:41:19;29.50;38.40
40630;DHT22;26329;40.388;-3.710;2023-06-26T07:51:20;30.10;37.40
40630;DHT22;26329;40.388;-3.710;2023-06-26T08:01:21;30.40;37.10
40630;DHT22;26329;40.388;-3.710;2023-06-26T08:11:21;30.70;36.40
40630;DHT22;26329;40.388;-3.710;2023-06-26T08:21:22;31.10;35.80
40630;DHT22;26329;40.388;-3.710;2023-06-26T08:31:23;31.40;35.00
40630;DHT22;26329;40.388;-3.710;2023-06-26T08:41:24;31.70;33.70
40630;DHT22;26329;40.388;-3.710;2023-06-26T08:51:27;32.00;32.90
40630;DHT22;26329;40.388;-3.710;2023-06-26T09:01:31;32.20;31.60
40630;DHT22;26329;40.388;-3.710;2023-06-26T09:11:32;32.40;31.80
40630;DHT22;26329;40.388;-3.710;2023-06-26T09:21:33;32.60;31.50
40630;DHT22;26329;40.388;-3.710;2023-06-26T09:31:36;32.60;31.20
40630;DHT22;26329;40.388;-3.710;2023-06-26T09:41:37;32.80;30.90
40630;DHT22;26329;40.388;-3.710;2023-06-26T09:51:40;32.90;31.10
40630;DHT22;26329;40.388;-3.710;2023-06-26T10:01:43;32.60;31.10
40630;DHT22;26329;40.388;-3.710;2023-06-26T10:21:58;32.80;30.80
40630;DHT22;26329;40.388;-3.710;2023-06-26T10:32:02;33.00;30.70
40630;DHT22;26329;40.388;-3.710;2023-06-26T10:42:10;33.40;29.70
40630;DHT22;26329;40.388;-3.710;2023-06-26T10:52:11;33.30;29.10
40630;DHT22;26329;40.388;-3.710;2023-06-26T11:02:12;33.60;28.80
40630;DHT22;26329;40.388;-3.710;2023-06-26T11:12:13;33.80;28.60
40630;DHT22;26329;40.388;-3.710;2023-06-26T11:22:15;34.00;28.20
40630;DHT22;26329;40.388;-3.710;2023-06-26T11:32:16;33.80;28.90
40630;DHT22;26329;40.388;-3.710;2023-06-26T11:42:17;33.90;29.00
40630;DHT22;26329;40.388;-3.710;2023-06-26T11:52:18;34.00;28.80
40630;DHT22;26329;40.388;-3.710;2023-06-26T12:02:19;34.10;29.00
40630;DHT22;26329;40.388;-3.710;2023-06-26T12:12:21;34.10;28.60
40630;DHT22;26329;40.388;-3.710;2023-06-26T12:22:22;34.20;28.40
40630;DHT22;26329;40.388;-3.710;2023-06-26T12:32:24;34.70;28.40
40630;DHT22;26329;40.388;-3.710;2023-06-26T12:42:27;34.80;28.20
40630;DHT22;26329;40.388;-3.710;2023-06-26T12:52:28;34.70;28.10
40630;DHT22;26329;40.388;-3.710;2023-06-26T13:02:29;34.70;28.10
40630;DHT22;26329;40.388;-3.710;2023-06-26T13:12:30;35.10;27.80
40630;DHT22;26329;40.388;-3.710;2023-06-26T13:22:31;35.30;27.80
40630;DHT22;26329;40.388;-3.710;2023-06-26T13:32:31;35.20;27.60
40630;DHT22;26329;40.388;-3.710;2023-06-26T13:42:32;35.40;27.20
40630;DHT22;26329;40.388;-3.710;2023-06-26T13:52:33;35.30;25.10
40630;DHT22;26329;40.388;-3.710;2023-06-26T14:02:34;35.70;25.20
40630;DHT22;26329;40.388;-3.710;2023-06-26T14:12:35;35.80;24.20
40630;DHT22;26329;40.388;-3.710;2023-06-26T14:22:36;36.30;23.40
40630;DHT22;26329;40.388;-3.710;2023-06-26T14:32:37;36.50;23.40
40630;DHT22;26329;40.388;-3.710;2023-06-26T14:42:38;36.70;23.40
40630;DHT22;26329;40.388;-3.710;2023-06-26T14:52:38;36.60;23.60
40630;DHT22;26329;40.388;-3.710;2023-06-26T15:02:39;36.60;23.20
40630;DHT22;26329;40.388;-3.710;2023-06-26T15:12:40;37.00;22.40
40630;DHT22;26329;40.388;-3.710;2023-06-26T15:22:40;36.90;20.40
40630;DHT22;26329;40.388;-3.710;2023-06-26T15:32:41;36.90;21.50
40630;DHT22;26329;40.388;-3.710;2023-06-26T15:42:46;37.00;22.00
40630;DHT22;26329;40.388;-3.710;2023-06-26T15:52:50;37.00;21.00
40630;DHT22;26329;40.388;-3.710;2023-06-26T16:02:51;36.80;20.80
40630;DHT22;26329;40.388;-3.710;2023-06-26T16:12:51;36.80;20.50
40630;DHT22;26329;40.388;-3.710;2023-06-26T16:22:52;37.00;19.30
40630;DHT22;26329;40.388;-3.710;2023-06-26T16:32:54;36.90;15.60
40630;DHT22;26329;40.388;-3.710;2023-06-26T16:42:58;36.90;14.20
40630;DHT22;26329;40.388;-3.710;2023-06-26T16:52:59;36.90;14.60
40630;DHT22;26329;40.388;-3.710;2023-06-26T17:03:00;36.80;14.60
40630;DHT22;26329;40.388;-3.710;2023-06-26T17:13:01;36.80;16.50
40630;DHT22;26329;40.388;-3.710;2023-06-26T17:23:01;36.70;19.50
40630;DHT22;26329;40.388;-3.710;2023-06-26T17:33:11;36.60;19.80
40630;DHT22;26329;40.388;-3.710;2023-06-26T17:43:11;36.60;19.70
40630;DHT22;26329;40.388;-3.710;2023-06-26T17:53:12;36.50;18.90
40630;DHT22;26329;40.388;-3.710;2023-06-26T18:03:13;36.30;18.30
40630;DHT22;26329;40.388;-3.710;2023-06-26T18:13:14;36.00;19.30
40630;DHT22;26329;40.388;-3.710;2023-06-26T18:23:14;35.70;19.00
40630;DHT22;26329;40.388;-3.710;2023-06-26T18:33:15;35.50;20.80
40630;DHT22;26329;40.388;-3.710;2023-06-26T18:43:16;35.30;20.10
40630;DHT22;26329;40.388;-3.710;2023-06-26T18:53:17;35.10;20.00
40630;DHT22;26329;40.388;-3.710;2023-06-26T19:03:17;35.00;19.70
40630;DHT22;26329;40.388;-3.710;2023-06-26T19:13:18;34.90;19.60
40630;DHT22;26329;40.388;-3.710;2023-06-26T19:23:19;34.70;20.60
40630;DHT22;26329;40.388;-3.710;2023-06-26T19:33:20;34.50;21.00
40630;DHT22;26329;40.388;-3.710;2023-06-26T19:43:21;34.20;21.40
40630;DHT22;26329;40.388;-3.710;2023-06-26T19:53:22;33.90;21.30
40630;DHT22;26329;40.388;-3.710;2023-06-26T20:03:23;33.70;21.80
40630;DHT22;26329;40.388;-3.710;2023-06-26T20:13:23;33.40;22.50
40630;DHT22;26329;40.388;-3.710;2023-06-26T20:23:24;33.20;22.40
40630;DHT22;26329;40.388;-3.710;2023-06-26T20:33:25;33.10;23.10
40630;DHT22;26329;40.388;-3.710;2023-06-26T20:43:26;32.90;23.10
40630;DHT22;26329;40.388;-3.710;2023-06-26T20:53:27;32.70;25.80
40630;DHT22;26329;40.388;-3.710;2023-06-26T21:03:28;32.50;25.90
40630;DHT22;26329;40.388;-3.710;2023-06-26T21:13:29;32.20;27.10
40630;DHT22;26329;40.388;-3.710;2023-06-26T21:23:29;32.10;28.10
40630;DHT22;26329;40.388;-3.710;2023-06-26T21:33:30;31.90;28.80
40630;DHT22;26329;40.388;-3.710;2023-06-26T21:43:31;31.70;29.30
40630;DHT22;26329;40.388;-3.710;2023-06-26T21:53:32;31.60;31.70
40630;DHT22;26329;40.388;-3.710;2023-06-26T22:03:33;31.40;29.50
40630;DHT22;26329;40.388;-3.710;2023-06-26T22:13:34;31.20;28.30
40630;DHT22;26329;40.388;-3.710;2023-06-26T22:23:34;31.10;29.80
40630;DHT22;26329;40.388;-3.710;2023-06-26T22:33:35;30.90;31.40
40630;DHT22;26329;40.388;-3.710;2023-06-26T22:43:36;30.60;33.50
40630;DHT22;26329;40.388;-3.710;2023-06-26T22:53:36;30.30;35.10
40630;DHT22;26329;40.388;-3.710;2023-06-26T23:03:37;30.00;36.60
40630;DHT22;26329;40.388;-3.710;2023-06-26T23:13:38;29.90;37.60
40630;DHT22;26329;40.388;-3.710;2023-06-26T23:23:39;29.80;38.00
40630;DHT22;26329;40.388;-3.710;2023-06-26T23:33:39;29.80;38.40
40630;DHT22;26329;40.388;-3.710;2023-06-26T23:43:42;29.60;38.90
40630;DHT22;26329;40.388;-3.710;2023-06-26T23:53:42;29.70;39.20
